• Join FlightAware (Why Join?)
  • Login
  • US Flag 
07:41AM EST


 

Airport Tracker/Info


-or-


 

Live Flight TrackerFlight Track Log ✈ SWA4225 ✈ 07-Jul-2013 ✈ KMDW - KLAS

Flight Track Log - Related Links

Times and Time Zones

All times are in EDT time to prevent confusion due to time zone crossing. See the SWA4225 flight status page for this flight to view local times or setup timezone preferences in your user account.

Time Position Orientation Groundspeed Altitude Reporting Facility
EDT Latitude Longitude Course Direction KTS MPH feet Rate Location/Type
09:14PM 41.7500 -87.8333 264° West 210 242 3,000  Level Chicago TRACON
09:15PM 41.7500 -87.9333 270° West 251 289 3,100 1,500 Climbing Chicago TRACON
09:16PM 41.7500 -88.0167 270° West 258 297 6,100 2,880 Climbing Chicago TRACON
09:17PM 41.7517 -88.1292 271° West 270 311 9,400 2,580 Climbing Chicago Center
09:18PM 41.7731 -88.2322 286° West 293 337 11,900 1,500 Climbing Chicago Center
09:19PM 41.7257 -88.4915 264° West  Level Estimated
09:19PM 41.7833 -88.3642 276° West 307 353 12,500  Level Chicago Center
09:20PM 41.7925 -88.4897 276° West 331 381 14,700 2,400 Climbing Chicago Center
09:21PM 41.8019 -88.6261 275° West 362 417 17,500 2,520 Climbing Chicago Center
09:22PM 41.8131 -88.7639 276° West 374 430 19,900 2,160 Climbing Chicago Center
09:23PM 41.8231 -88.9097 275° West 392 451 22,000 1,920 Climbing Chicago Center
09:25PM 41.8260 -89.0966 285° West  Level FlightAware Approximate
09:25PM 41.8519 -89.2469 285° West 424 488 26,000  Level Chicago Center
09:26PM 41.8461 -89.4061 267° West 432 497 27,800 2,100 Climbing Chicago Center
09:27PM 41.8342 -89.5639 264° West 430 495 30,400 1,980 Climbing Chicago Center
09:28PM 41.8219 -89.7164 264° West 417 480 32,000 1,260 Climbing Chicago Center
09:29PM 41.8094 -89.8736 264° West 426 490 33,100 1,200 Climbing Chicago Center
09:31PM 41.7975 -90.0411 265° West 430 495 34,500 1,380 Climbing Chicago Center
09:32PM 41.7850 -90.2022 264° West 435 501 36,000 720 Climbing Chicago Center
09:33PM 41.7678 -90.3956 263° West 438 504 36,000  Level Chicago Center
09:34PM 41.7556 -90.5506 264° West 428 493 36,000  Level Chicago Center
09:35PM 41.7408 -90.7047 263° West 421 484 36,000  Level Chicago Center
09:36PM 41.7275 -90.8586 263° West 421 484 36,000  Level Chicago Center
09:37PM 41.7142 -91.0117 263° West 418 481 36,000 600 Level Chicago Center
09:38PM 41.7003 -91.1639 263° West 416 479 37,300 960 Climbing Chicago Center
09:39PM 41.6839 -91.3469 263° West 414 476 38,000 300 Climbing Chicago Center
09:40PM 41.6692 -91.4997 263° West 417 480 38,000  Level Chicago Center
09:41PM 41.6553 -91.6547 263° West 421 484 38,000  Level Chicago Center
09:42PM 41.6403 -91.8097 263° West 422 486 38,000  Level Chicago Center
09:43PM 41.6250 -91.9625 262° West 419 482 38,000  Level Chicago Center
09:44PM 41.6108 -92.1183 263° West 423 487 38,000  Level Chicago Center
09:45PM 41.5919 -92.3019 262° West 420 483 38,000  Level Chicago Center
09:46PM 41.5769 -92.4542 263° West 418 481 38,000  Level Chicago Center
09:47PM 41.5614 -92.6081 262° West 421 484 38,000  Level Chicago Center
09:48PM 41.5469 -92.7475 262° West 421 484 38,000  Level Minneapolis Center
09:49PM 41.5300 -92.9008 262° West 422 486 38,000  Level Minneapolis Center
09:50PM 41.5144 -93.0536 262° West 422 486 38,000  Level Minneapolis Center
09:51PM 41.4978 -93.2061 262° West 421 484 38,000  Level Minneapolis Center
09:52PM 41.4775 -93.3889 262° West 421 484 38,000  Level Minneapolis Center
09:53PM 41.4636 -93.5106 261° West 421 484 38,000  Level Minneapolis Center
09:54PM 41.4456 -93.6853 262° West 407 468 38,000  Level Minneapolis Center
09:55PM 41.4289 -93.8358 262° West 413 475 38,000  Level Minneapolis Center
09:56PM 41.4128 -93.9864 262° West 415 478 38,000  Level Minneapolis Center
09:57PM 41.3931 -94.1400 260° West 421 484 38,000  Level Minneapolis Center
09:58PM 41.3700 -94.3231 261° West 422 486 38,000  Level Minneapolis Center
09:59PM 41.3511 -94.4756 261° West 421 484 38,000  Level Minneapolis Center
10:00PM 41.3342 -94.6319 262° West 424 488 38,000  Level Minneapolis Center
10:01PM 41.3164 -94.7836 261° West 420 483 38,000  Level Minneapolis Center
10:02PM 41.2972 -94.9339 260° West 415 478 38,000  Level Minneapolis Center
10:03PM 41.2789 -95.0847 261° West 414 476 38,000  Level Minneapolis Center
10:04PM 41.2589 -95.2361 260° West 416 479 38,000  Level Minneapolis Center
10:05PM 41.2392 -95.3872 260° West 414 476 38,000  Level Minneapolis Center
10:06PM 41.2183 -95.5403 260° West 419 482 38,000  Level Minneapolis Center
10:07PM 41.1981 -95.6992 260° West 415 478 38,000  Level Minneapolis Center
10:08PM 41.1789 -95.8514 261° West 417 480 38,000  Level Minneapolis Center
10:09PM 41.1539 -96.0306 260° West 412 474 38,000  Level Minneapolis Center
10:10PM 41.1336 -96.1775 260° West 407 468 38,000  Level Minneapolis Center
10:11PM 41.1153 -96.3269 261° West 408 470 38,000  Level Minneapolis Center
10:12PM 41.0922 -96.4781 259° West 412 474 38,000  Level Minneapolis Center
10:13PM 41.0717 -96.6275 260° West 413 475 38,000  Level Minneapolis Center
10:14PM 41.0500 -96.7789 259° West 414 476 38,000  Level Minneapolis Center
10:16PM 41.0283 -96.9311 259° West 417 480 38,000  Level Minneapolis Center
10:17PM 41.0014 -97.0831 257° West 420 483 38,000  Level Minneapolis Center
10:18PM 40.9650 -97.2306 252° West 422 486 38,000  Level Minneapolis Center
10:19PM 40.9228 -97.4039 252° West 419 482 38,000  Level Minneapolis Center
10:20PM 40.8875 -97.5483 252° West 416 479 38,000  Level Minneapolis Center
10:21PM 40.8511 -97.6936 252° West 415 478 38,000  Level Minneapolis Center
10:22PM 40.8131 -97.8386 251° West 416 479 38,000  Level Minneapolis Center
10:23PM 40.7756 -97.9833 251° West 416 479 38,000  Level Minneapolis Center
10:24PM 40.7386 -98.1297 252° West 417 480 38,000  Level Minneapolis Center
10:25PM 40.7006 -98.2767 251° West 421 484 38,000  Level Minneapolis Center
10:26PM 40.6636 -98.4231 252° West 419 482 38,000  Level Minneapolis Center
10:27PM 40.6283 -98.5681 252° West 415 478 38,000  Level Minneapolis Center
10:28PM 40.5936 -98.7147 253° West 416 479 38,000  Level Minneapolis Center
10:29PM 40.5594 -98.8611 253° West 417 480 38,000  Level Minneapolis Center
10:30PM 40.5258 -99.0053 253° West 412 474 38,000  Level Minneapolis Center
10:31PM 40.4928 -99.1489 253° West 409 471 38,000  Level Minneapolis Center
10:32PM 40.4556 -99.3211 254° West 408 470 38,000  Level Minneapolis Center
10:33PM 40.4278 -99.4328 252° West 403 464 38,000  Level Denver Center
10:34PM 40.3842 -99.5700 247° West 405 466 38,000  Level Denver Center
10:35PM 40.3436 -99.7097 249° West 408 470 38,000  Level Denver Center
10:36PM 40.3025 -99.8478 249° West 408 470 38,000  Level Denver Center
10:37PM 40.2592 -100.0000 250° West 411 473 38,000  Level Denver Center
10:38PM 40.2208 -100.1342 250° West 412 474 38,000  Level Denver Center
10:39PM 40.1758 -100.2917 250° West 413 475 38,000  Level Denver Center
10:40PM 40.1269 -100.4206 244° Southwest 412 474 38,000  Level Denver Center
10:41PM 40.0700 -100.5714 244° Southwest 413 475 38,000  Level Denver Center
10:42PM 40.0211 -100.7014 244° Southwest 415 478 38,000  Level Denver Center
10:43PM 39.9719 -100.8317 244° Southwest 417 480 38,000  Level Denver Center
10:44PM 39.9122 -100.9764 242° Southwest 408 470 38,000  Level Denver Center
10:45PM 39.8628 -101.0997 242° Southwest 402 463 38,000  Level Denver Center
10:46PM 39.8033 -101.2411 241° Southwest 400 460 38,000  Level Denver Center
10:47PM 39.7575 -101.3692 245° Southwest 404 465 38,000  Level Denver Center
10:48PM 39.7100 -101.4964 244° Southwest 407 468 38,000  Level Denver Center
10:49PM 39.6594 -101.6461 246° West 406 467 38,000  Level Denver Center
10:50PM 39.6189 -101.7753 248° West 404 465 38,000  Level Denver Center
10:51PM 39.5650 -101.9272 245° Southwest 412 474 38,000  Level Denver Center
10:52PM 39.5214 -102.0586 247° West 414 476 38,000  Level Denver Center
10:53PM 39.4958 -102.2022 257° West 423 487 38,000  Level Denver Center
10:54PM 39.4681 -102.3686 258° West 426 490 38,000  Level Denver Center
10:55PM 39.4464 -102.5119 259° West 428 493 38,000  Level Denver Center
10:56PM 39.4269 -102.6622 261° West 426 490 38,000  Level Denver Center
10:57PM 39.4056 -102.8111 260° West 422 486 38,000  Level Denver Center
10:58PM 39.3856 -102.9617 260° West 424 488 38,000  Level Denver Center
10:59PM 39.3603 -103.1453 260° West 432 497 38,000  Level Denver Center
11:00PM 39.3394 -103.2975 260° West 432 497 38,000  Level Denver Center
11:01PM 39.3175 -103.4528 260° West 437 503 38,000  Level Denver Center
11:02PM 39.2936 -103.6078 259° West 442 509 38,000  Level Denver Center
11:03PM 39.2708 -103.7647 259° West 444 511 38,000  Level Denver Center
11:04PM 39.2500 -103.9186 260° West 437 503 38,000  Level Denver Center
11:06PM 39.2267 -104.0681 259° West 428 493 38,000  Level Denver Center
11:07PM 39.2042 -104.2206 259° West 431 496 38,000  Level Denver Center
11:08PM 39.1814 -104.3692 259° West 423 487 38,000  Level Denver Center
11:09PM 39.1594 -104.5192 259° West 423 487 38,000  Level Denver Center
11:10PM 39.1364 -104.6683 259° West 421 484 38,000  Level Denver Center
11:11PM 39.1133 -104.8161 259° West 420 483 38,000  Level Denver Center
11:12PM 39.0864 -104.9919 259° West 417 480 38,000  Level Denver Center
11:13PM 39.0636 -105.1381 259° West 416 479 38,000  Level Denver Center
11:14PM 39.0406 -105.2864 259° West 422 486 38,000  Level Denver Center
11:15PM 39.0119 -105.4642 258° West 423 487 38,000  Level Denver Center
11:16PM 38.9889 -105.6111 259° West 421 484 38,000  Level Denver Center
11:17PM 38.9639 -105.7578 258° West 421 484 38,000  Level Denver Center
11:18PM 38.9394 -105.9047 258° West 421 484 38,000  Level Denver Center
11:19PM 38.9158 -106.0519 258° West 422 486 38,000  Level Denver Center
11:20PM 38.8883 -106.2131 258° West 420 483 38,000  Level Denver Center
11:21PM 38.8639 -106.3572 258° West 416 479 38,000  Level Denver Center
11:22PM 38.8461 -106.5056 261° West 421 484 38,000  Level Denver Center
11:23PM 38.8458 -106.6611 270° West 424 488 38,000  Level Denver Center
11:24PM 38.8456 -106.8092 270° West 424 488 38,000  Level Denver Center
11:25PM 38.8453 -106.9625 270° West 427 491 38,000  Level Denver Center
11:26PM 38.8442 -107.1114 269° West 417 480 38,000  Level Denver Center
11:27PM 38.8442 -107.2836 270° West 418 481 38,000  Level Denver Center
11:28PM 38.8472 -107.4275 272° West 421 484 38,000  Level Denver Center
11:29PM 38.8500 -107.5689 271° West 416 479 38,000  Level Denver Center
11:30PM 38.8536 -107.7347 272° West 416 479 38,000  Level Denver Center
11:31PM 38.8536 -107.8747 270° West 412 474 38,000  Level Denver Center
11:32PM 38.8153 -108.0275 252° West 403 464 38,000  Level Denver Center
11:33PM 38.7828 -108.1639 253° West 413 475 38,000  Level Denver Center
11:34PM 38.7503 -108.2978 253° West 412 474 38,000  Level Denver Center
11:35PM 38.7114 -108.4561 253° West 416 479 38,000  Level Denver Center
11:36PM 38.6789 -108.5906 253° West 415 478 38,000  Level Denver Center
11:37PM 38.6400 -108.7469 252° West 412 474 38,000  Level Denver Center
11:38PM 38.6067 -108.8817 252° West 415 478 38,000  Level Denver Center
11:39PM 38.5736 -109.0150 252° West 411 473 38,000  Level Denver Center
11:40PM 38.5339 -109.1703 252° West 411 473 38,000  Level Denver Center
11:41PM 38.5000 -109.3044 252° West 414 476 38,000  Level Denver Center
11:43PM 38.4658 -109.4389 252° West 414 476 38,000  Level Denver Center
11:44PM 38.4256 -109.5967 252° West 418 481 38,000  Level Denver Center
11:45PM 38.3906 -109.7297 251° West 415 478 38,000  Level Denver Center
11:46PM 38.3558 -109.8636 252° West 414 476 38,000  Level Denver Center
11:47PM 38.3147 -110.0186 251° West 412 474 38,000  Level Denver Center
11:48PM 38.2622 -110.1678 246° West 413 475 38,000 -480 Level Salt Lake Center
11:49PM 38.2122 -110.2917 243° Southwest 411 473 37,100 -960 Descending Salt Lake Center
11:50PM 38.1594 -110.4167 242° Southwest 419 482 36,200 -1,020 Descending Denver Center
11:51PM 38.0994 -110.5644 243° Southwest 421 484 35,100 -960 Descending Salt Lake Center
11:52PM 38.0461 -110.6908 242° Southwest 423 487 34,200 -1,020 Descending Salt Lake Center
11:53PM 37.9939 -110.8197 243° Southwest 429 494 33,200 -1,080 Descending Denver Center
11:54PM 37.9303 -110.9786 243° Southwest 431 496 32,100 -600 Descending Salt Lake Center
11:55PM 37.8756 -111.1092 242° Southwest 424 488 32,000 -60 Descending Salt Lake Center
11:56PM 37.8300 -111.2131 241° Southwest 423 487 32,000  Level Denver Center
11:57PM 37.7769 -111.3442 243° Southwest 420 483 32,000  Level Denver Center
11:58PM 37.7125 -111.4939 241° Southwest 405 466 32,000  Level Denver Center
11:59PM 37.6606 -111.6192 242° Southwest 403 464 32,000  Level Denver Center
12:00AM 37.6083 -111.7425 242° Southwest 400 460 32,000  Level Denver Center
12:01AM 37.5553 -111.8644 241° Southwest 397 457 32,000  Level Denver Center
12:02AM 37.5039 -111.9889 243° Southwest 399 459 32,000  Level Denver Center
12:03AM 37.4583 -112.0881 240° Southwest 402 463 32,000  Level Los Angeles Center
12:04AM 37.4056 -112.2125 242° Southwest 402 463 32,000  Level Los Angeles Center
12:05AM 37.3414 -112.3614 242° Southwest 402 463 32,000  Level Los Angeles Center
12:06AM 37.2861 -112.4858 241° Southwest 404 465 32,000  Level Los Angeles Center
12:07AM 37.2322 -112.6103 241° Southwest 404 465 32,000 -540 Level Los Angeles Center
12:08AM 37.1786 -112.7333 241° Southwest 401 461 30,900 -1,080 Descending Los Angeles Center
12:09AM 37.1269 -112.8517 241° Southwest 390 449 29,900 -1,080 Descending Los Angeles Center
12:10AM 37.0747 -112.9689 241° Southwest 385 443 28,800 -1,080 Descending Los Angeles Center
12:11AM 37.0253 -113.0828 241° Southwest 376 433 27,800 -1,020 Descending Los Angeles Center
12:12AM 36.9736 -113.1956 240° Southwest 373 429 26,800 -960 Descending Los Angeles Center
12:13AM 36.9236 -113.3122 242° Southwest 378 435 25,900 -900 Descending Los Angeles Center
12:14AM 36.8694 -113.4306 240° Southwest 389 448 25,000 -900 Descending Los Angeles Center
12:15AM 36.8189 -113.5486 242° Southwest 386 444 24,000 -1,140 Descending Los Angeles Center
12:16AM 36.7481 -113.7036 240° Southwest 371 427 22,500 -1,260 Descending Los Angeles Center
12:17AM 36.6983 -113.8122 240° Southwest 364 419 21,500 -1,020 Descending Los Angeles Center
12:18AM 36.6492 -113.9197 240° Southwest 360 414 20,500 -1,020 Descending Los Angeles Center
12:19AM 36.6008 -114.0294 241° Southwest 360 414 19,500 -1,320 Descending Los Angeles Center
12:20AM 36.5531 -114.1336 240° Southwest 351 404 17,800 -1,920 Descending Los Angeles Center
12:21AM 36.5094 -114.2317 241° Southwest 354 407 15,900 -2,100 Descending Los Angeles Center
12:22AM 36.4556 -114.3492 240° Southwest 341 392 13,600 -1,920 Descending Los Angeles Center
12:23AM 36.4128 -114.4389 239° Southwest 334 384 12,100 -840 Descending Los Angeles Center
12:24AM 36.3667 -114.5322 238° Southwest 322 371 12,000 -900 Descending Los Angeles Center
12:25AM 36.3064 -114.6408 235° Southwest 332 382 10,200 -1,320 Descending Los Angeles Center
12:26AM 36.2603 -114.7258 236° Southwest 295 339 9,300 -840 Descending Los Angeles Center
12:27AM 36.2200 -114.7981 235° Southwest 250 288 8,500 -900 Descending Los Angeles Center
12:28AM 36.1844 -114.8633 236° Southwest 236 272 7,600 -960 Descending Los Angeles Center
12:29AM 36.1486 -114.9258 235° Southwest 223 257 6,600 -1,140 Descending Los Angeles Center
12:30AM 36.1339 -114.9867 253° West 188 216 5,400 -1,200 Descending Los Angeles Center
12:32AM 36.1378 -115.0547 274° West 180 207 4,200 -1,080 Descending Los Angeles Center
12:32AM 36.1356 -115.1033 267° West 154 177 3,400 -840 Descending Los Angeles Center
12:33AM 36.1189 -115.1461 244° Southwest 134 154 2,600 -600 Descending Los Angeles Center
12:35AM 36.0917 -115.1558 196° South 143 165 2,100 -420 Descending Los Angeles Center